Time;durP1;ratioP1;P1;durP2;ratioP2;P2;SDS_P1;SDS_P2;PMS_P1;PMS_P2;Temp;Humidity;BMP_temperature;BMP_pressure;BME280_temperature;BME280_humidity;BME280_pressure;Samples;Min_cycle;Max_cycle;Signal;HPM_P1;HPM_P2
2021/06/22 00:00:23;;;;;;;4.30;3.28;;;15.80;99.90;;;;;;4996974;28;20260;-79
2021/06/22 00:02:50;;;;;;;3.97;2.95;;;15.80;99.90;;;;;;4996137;28;20200;-79
2021/06/22 00:05:17;;;;;;;4.07;3.38;;;15.90;99.90;;;;;;4995909;28;20165;-79
2021/06/22 00:07:44;;;;;;;3.85;3.33;;;15.80;99.90;;;;;;4996097;28;20170;-80
2021/06/22 00:10:10;;;;;;;8.88;3.20;;;15.80;99.90;;;;;;4995876;28;20170;-79
2021/06/22 00:12:36;;;;;;;5.43;3.15;;;15.70;99.90;;;;;;4996010;28;20204;-80
2021/06/22 00:15:04;;;;;;;6.28;2.97;;;15.60;99.90;;;;;;4995570;28;20875;-81
2021/06/22 00:17:30;;;;;;;3.97;3.47;;;15.60;99.90;;;;;;4995104;28;20177;-80
2021/06/22 00:19:55;;;;;;;6.53;3.05;;;15.60;99.90;;;;;;4994951;28;20177;-79
2021/06/22 00:22:21;;;;;;;3.53;3.22;;;15.60;99.90;;;;;;4995487;28;20275;-80
2021/06/22 00:24:47;;;;;;;3.28;2.92;;;15.60;99.90;;;;;;4996163;28;20714;-79
2021/06/22 00:27:13;;;;;;;3.83;3.35;;;15.60;99.90;;;;;;4995699;28;20169;-78
2021/06/22 00:29:43;;;;;;;6.07;2.72;;;15.70;99.90;;;;;;4997344;28;20224;-79
2021/06/22 00:32:09;;;;;;;6.78;3.33;;;15.70;99.90;;;;;;4995105;28;20675;-80
2021/06/22 00:34:35;;;;;;;4.18;2.78;;;15.80;99.90;;;;;;4995473;28;20574;-79
2021/06/22 00:37:00;;;;;;;6.28;3.15;;;15.90;99.90;;;;;;4995681;28;20165;-79
2021/06/22 00:39:27;;;;;;;6.30;3.03;;;15.90;99.90;;;;;;5001764;28;20180;-79
2021/06/22 00:41:54;;;;;;;8.85;2.90;;;15.60;99.90;;;;;;5021124;28;20185;-79
2021/06/22 00:44:20;;;;;;;7.50;3.40;;;15.60;99.90;;;;;;5017235;28;20176;-79
2021/06/22 00:46:45;;;;;;;3.33;3.08;;;15.60;99.90;;;;;;5018822;28;20192;-79
2021/06/22 00:49:11;;;;;;;7.75;2.90;;;15.50;99.90;;;;;;4999167;28;20720;-79
2021/06/22 00:51:37;;;;;;;5.18;3.03;;;15.70;99.90;;;;;;4997140;28;20189;-79
2021/06/22 00:54:04;;;;;;;3.35;3.05;;;15.80;99.90;;;;;;4997964;28;20260;-80
2021/06/22 00:56:31;;;;;;;6.00;3.63;;;15.80;99.90;;;;;;4997649;28;20177;-80
2021/06/22 00:58:58;;;;;;;4.50;3.00;;;15.60;99.90;;;;;;5018738;28;20176;-79
2021/06/22 01:01:24;;;;;;;5.05;2.92;;;15.50;99.90;;;;;;4995532;28;20177;-79
2021/06/22 01:03:49;;;;;;;4.28;2.88;;;15.70;99.90;;;;;;5005975;28;20165;-79
2021/06/22 01:06:17;;;;;;;3.88;2.83;;;15.90;99.90;;;;;;5006793;28;20161;-79
2021/06/22 01:08:43;;;;;;;3.47;2.47;;;15.80;99.90;;;;;;5003903;28;20256;-80
2021/06/22 01:11:09;;;;;;;5.75;3.17;;;15.90;99.90;;;;;;5003417;28;20178;-80
2021/06/22 01:13:35;;;;;;;3.75;3.03;;;15.70;99.90;;;;;;5017553;28;20196;-79
2021/06/22 01:16:01;;;;;;;2.85;2.65;;;15.80;99.90;;;;;;5017787;28;20257;-79
2021/06/22 01:18:26;;;;;;;6.82;3.90;;;15.90;99.90;;;;;;5016469;28;20177;-80
2021/06/22 01:20:57;;;;;;;5.32;3.00;;;16.00;99.90;;;;;;5010958;28;20192;-79
2021/06/22 01:23:23;;;;;;;2.92;2.72;;;15.80;99.90;;;;;;5004051;28;20208;-79
2021/06/22 01:25:49;;;;;;;4.05;3.17;;;15.70;99.90;;;;;;5001006;28;20165;-79
2021/06/22 01:28:17;;;;;;;5.68;3.33;;;15.80;99.90;;;;;;5012686;28;20216;-79
2021/06/22 01:30:42;;;;;;;4.38;2.75;;;15.70;99.90;;;;;;5006388;28;20192;-80
2021/06/22 01:33:08;;;;;;;4.15;2.83;;;15.70;99.90;;;;;;4998779;28;20221;-80
2021/06/22 01:35:34;;;;;;;6.18;2.55;;;15.80;99.90;;;;;;4998756;28;20173;-79
2021/06/22 01:38:04;;;;;;;3.33;2.72;;;15.80;99.90;;;;;;5001761;28;20165;-80
2021/06/22 01:40:30;;;;;;;6.53;3.13;;;15.90;99.90;;;;;;5015768;28;20176;-79
2021/06/22 01:43:00;;;;;;;4.32;3.35;;;15.80;99.90;;;;;;4999252;28;20196;-79
2021/06/22 01:45:25;;;;;;;2.92;2.70;;;15.70;99.90;;;;;;4999242;28;20189;-79
2021/06/22 01:47:51;;;;;;;4.80;2.92;;;15.70;99.90;;;;;;4997479;28;20165;-80
2021/06/22 01:50:17;;;;;;;3.15;2.40;;;15.70;99.90;;;;;;4998252;28;20636;-80
2021/06/22 01:52:44;;;;;;;3.85;2.50;;;15.60;99.90;;;;;;4998857;28;20208;-79
2021/06/22 01:57:58;;;;;;;7.28;3.00;;;15.80;99.90;;;;;;5000176;28;20195;-80
2021/06/22 02:00:24;;;;;;;4.55;2.88;;;15.70;99.90;;;;;;5014342;28;20166;-79
2021/06/22 02:02:49;;;;;;;4.57;2.38;;;15.60;99.90;;;;;;4996723;28;20208;-79
2021/06/22 02:05:15;;;;;;;4.80;2.85;;;15.50;99.90;;;;;;5015057;28;20170;-79
2021/06/22 02:07:42;;;;;;;5.55;2.78;;;15.50;99.90;;;;;;4996970;28;20329;-80
2021/06/22 02:10:09;;;;;;;5.85;2.67;;;15.50;99.90;;;;;;5012901;28;20209;-80
2021/06/22 02:12:35;;;;;;;5.85;2.80;;;15.30;99.90;;;;;;4998948;28;20279;-79
2021/06/22 02:15:03;;;;;;;10.52;3.72;;;15.20;99.90;;;;;;4998157;28;20256;-79
2021/06/22 02:17:29;;;;;;;3.17;2.97;;;15.20;99.90;;;;;;5014277;28;20169;-80
2021/06/22 02:19:54;;;;;;;2.95;2.55;;;15.20;99.90;;;;;;4998451;28;20617;-80
2021/06/22 02:22:20;;;;;;;5.80;2.42;;;15.10;99.90;;;;;;4998053;28;20216;-79
2021/06/22 02:24:46;;;;;;;2.38;2.17;;;15.10;99.90;;;;;;4998123;28;20183;-80
2021/06/22 02:27:22;;;;;;;3.75;2.53;;;15.10;99.90;;;;;;4993173;28;20259;-79
2021/06/22 02:29:48;;;;;;;4.35;3.13;;;15.20;99.90;;;;;;5007831;28;20177;-80
2021/06/22 02:32:14;;;;;;;3.33;2.80;;;15.10;99.90;;;;;;4993184;28;20652;-80
2021/06/22 02:34:39;;;;;;;5.43;3.05;;;15.10;99.90;;;;;;4993463;28;20201;-80
2021/06/22 02:37:05;;;;;;;2.85;2.20;;;15.10;99.90;;;;;;4991765;28;20172;-80
2021/06/22 02:39:31;;;;;;;3.85;2.65;;;15.30;99.90;;;;;;4993153;28;20177;-79
2021/06/22 02:41:56;;;;;;;4.97;2.75;;;15.30;99.90;;;;;;4992285;28;20272;-79
2021/06/22 02:44:22;;;;;;;5.40;2.63;;;15.30;99.90;;;;;;4993078;28;20173;-80
2021/06/22 02:46:47;;;;;;;2.58;2.38;;;15.30;99.90;;;;;;4993460;28;20223;-80
2021/06/22 02:49:13;;;;;;;6.20;2.40;;;15.40;99.90;;;;;;4993178;28;20628;-80
2021/06/22 02:51:39;;;;;;;2.88;2.60;;;15.40;99.90;;;;;;4992857;28;20189;-79
2021/06/22 02:54:04;;;;;;;4.65;2.50;;;15.40;99.90;;;;;;4993621;28;20271;-79
2021/06/22 02:56:30;;;;;;;4.38;2.95;;;15.40;99.90;;;;;;4992925;28;20291;-80
2021/06/22 02:58:56;;;;;;;4.13;2.67;;;15.40;99.90;;;;;;4992451;28;20209;-79
2021/06/22 03:01:21;;;;;;;8.82;2.75;;;15.30;99.90;;;;;;4992596;28;20176;-80
2021/06/22 03:03:47;;;;;;;2.63;2.42;;;15.20;99.90;;;;;;4991797;28;20173;-79
2021/06/22 03:06:12;;;;;;;8.10;2.83;;;15.40;99.90;;;;;;4991516;28;20656;-80
2021/06/22 03:08:38;;;;;;;7.53;2.78;;;15.30;99.90;;;;;;4991656;28;20267;-79
2021/06/22 03:11:04;;;;;;;6.70;2.90;;;15.30;99.90;;;;;;4992785;28;20161;-80
2021/06/22 03:13:29;;;;;;;4.88;2.50;;;15.20;99.90;;;;;;4992889;28;20217;-80
2021/06/22 03:15:55;;;;;;;3.97;2.67;;;15.30;99.90;;;;;;4992763;28;20193;-80
2021/06/22 03:18:20;;;;;;;3.40;2.45;;;15.20;99.90;;;;;;5007820;28;20201;-79
2021/06/22 03:20:46;;;;;;;2.20;2.03;;;15.20;99.90;;;;;;4993109;28;20177;-80
2021/06/22 03:23:12;;;;;;;6.25;2.60;;;15.00;99.90;;;;;;5007661;28;20287;-80
2021/06/22 03:25:38;;;;;;;6.43;2.88;;;15.10;99.90;;;;;;4993053;28;20170;-79
2021/06/22 03:28:05;;;;;;;6.57;3.20;;;15.10;99.90;;;;;;4992411;28;20166;-79
2021/06/22 03:30:32;;;;;;;3.33;2.80;;;15.20;99.90;;;;;;4995343;28;20173;-79
2021/06/22 03:32:58;;;;;;;11.90;3.15;;;15.10;99.90;;;;;;4994206;28;20736;-80
2021/06/22 03:35:27;;;;;;;7.28;3.47;;;15.10;99.90;;;;;;4992578;28;20775;-81
2021/06/22 03:37:52;;;;;;;4.07;3.03;;;15.10;99.90;;;;;;4992701;28;20176;-79
2021/06/22 03:40:21;;;;;;;4.55;2.83;;;15.20;99.90;;;;;;4991297;28;20169;-79
2021/06/22 03:42:46;;;;;;;7.40;3.28;;;15.10;99.90;;;;;;4992823;28;20268;-78
2021/06/22 03:45:13;;;;;;;4.43;2.83;;;15.10;99.90;;;;;;4993043;28;20625;-78
2021/06/22 03:47:39;;;;;;;3.35;3.05;;;15.20;99.90;;;;;;4992827;28;20200;-79
2021/06/22 03:50:06;;;;;;;6.75;3.15;;;15.20;99.90;;;;;;4993390;28;20166;-79
2021/06/22 03:52:32;;;;;;;3.72;2.97;;;15.10;99.90;;;;;;4993926;28;20193;-80
2021/06/22 03:54:57;;;;;;;7.68;3.40;;;15.10;99.90;;;;;;5001512;28;20164;-79
2021/06/22 03:57:23;;;;;;;7.55;3.50;;;15.10;99.90;;;;;;5020382;28;20161;-78
2021/06/22 03:59:50;;;;;;;6.47;3.20;;;15.10;99.90;;;;;;5017561;28;20173;-79
2021/06/22 04:02:17;;;;;;;7.72;2.72;;;15.20;99.90;;;;;;5029976;28;20198;-79
2021/06/22 04:04:43;;;;;;;6.13;3.78;;;15.10;99.90;;;;;;5000937;28;20177;-79
2021/06/22 04:07:08;;;;;;;5.07;3.45;;;15.00;99.90;;;;;;4998134;28;20523;-79
2021/06/22 04:09:34;;;;;;;8.15;3.63;;;15.10;99.90;;;;;;5015566;28;20165;-78
2021/06/22 04:12:00;;;;;;;9.20;3.28;;;15.10;99.90;;;;;;5001908;28;20221;-79
2021/06/22 04:14:26;;;;;;;7.70;3.30;;;15.10;99.90;;;;;;4996367;28;20700;-81
2021/06/22 04:16:51;;;;;;;10.23;3.70;;;15.10;99.90;;;;;;5010836;28;20173;-79
2021/06/22 04:19:17;;;;;;;7.57;3.97;;;15.10;99.90;;;;;;4995418;28;20173;-79
2021/06/22 04:21:43;;;;;;;15.57;3.92;;;15.00;99.90;;;;;;4995768;28;20796;-80
2021/06/22 04:24:10;;;;;;;7.93;3.30;;;14.90;99.90;;;;;;4998565;28;20189;-78
2021/06/22 04:26:36;;;;;;;7.40;4.00;;;15.00;99.90;;;;;;5001796;28;20208;-78
2021/06/22 04:29:03;;;;;;;6.40;3.97;;;14.90;99.90;;;;;;5000769;28;20671;-79
2021/06/22 04:31:29;;;;;;;18.38;4.07;;;14.90;99.90;;;;;;4998489;28;20173;-79
2021/06/22 04:33:57;;;;;;;9.30;3.42;;;15.00;99.90;;;;;;5000073;28;20203;-80
2021/06/22 04:36:24;;;;;;;7.78;3.50;;;15.10;99.90;;;;;;4998870;28;20248;-79
2021/06/22 04:38:50;;;;;;;8.90;4.32;;;15.30;99.90;;;;;;4995548;28;20645;-78
2021/06/22 04:41:15;;;;;;;7.80;3.70;;;15.30;99.90;;;;;;4995535;28;20255;-78
2021/06/22 04:43:41;;;;;;;10.90;3.95;;;15.30;99.90;;;;;;4995724;28;20169;-78
2021/06/22 04:46:07;;;;;;;8.50;4.55;;;15.00;99.90;;;;;;4995468;28;20245;-79
2021/06/22 04:48:32;;;;;;;12.45;3.42;;;15.10;99.90;;;;;;5010447;28;20165;-81
2021/06/22 04:50:58;;;;;;;8.02;3.92;;;15.10;99.90;;;;;;4994433;28;20700;-78
2021/06/22 04:53:26;;;;;;;7.55;3.75;;;15.00;99.90;;;;;;4994804;28;20220;-78
2021/06/22 04:55:52;;;;;;;11.27;4.50;;;15.10;99.90;;;;;;4995274;28;20165;-78
2021/06/22 04:58:18;;;;;;;8.57;3.42;;;15.20;99.90;;;;;;4993964;28;20598;-78
2021/06/22 05:00:44;;;;;;;3.95;3.22;;;15.30;99.90;;;;;;4996336;28;20251;-79
2021/06/22 05:03:09;;;;;;;11.48;3.85;;;15.10;99.90;;;;;;4995147;28;20196;-79
2021/06/22 05:05:35;;;;;;;12.88;4.63;;;15.00;99.90;;;;;;4994205;28;20162;-79
2021/06/22 05:08:01;;;;;;;14.13;4.60;;;15.00;99.90;;;;;;4993544;28;20170;-79
2021/06/22 05:10:28;;;;;;;12.02;4.00;;;15.00;99.90;;;;;;4998591;28;20173;-79
2021/06/22 05:12:53;;;;;;;14.00;4.72;;;14.80;99.90;;;;;;5013377;28;20213;-79
2021/06/22 05:15:20;;;;;;;10.90;4.70;;;14.80;99.90;;;;;;4994803;28;20169;-79
2021/06/22 05:17:46;;;;;;;8.43;4.88;;;14.70;99.90;;;;;;4996740;28;20188;-79
2021/06/22 05:20:11;;;;;;;4.88;4.40;;;14.60;99.90;;;;;;4995678;28;20176;-80
2021/06/22 05:22:37;;;;;;;14.70;4.80;;;14.60;99.90;;;;;;4994453;28;20565;-79
2021/06/22 05:25:04;;;;;;;9.73;4.50;;;14.60;99.90;;;;;;4994688;28;20292;-80
2021/06/22 05:27:30;;;;;;;13.50;3.80;;;14.80;99.90;;;;;;4994148;28;20180;-79
2021/06/22 05:29:57;;;;;;;9.50;4.55;;;14.90;99.90;;;;;;5013517;28;20200;-79
2021/06/22 05:32:25;;;;;;;8.25;4.55;;;14.80;99.90;;;;;;5000779;28;20189;-81
2021/06/22 05:34:51;;;;;;;9.15;4.28;;;14.80;99.90;;;;;;5001194;28;20656;-79
2021/06/22 05:37:19;;;;;;;7.38;3.80;;;14.80;99.90;;;;;;5001508;28;20201;-80
2021/06/22 05:39:45;;;;;;;6.45;4.28;;;14.50;99.90;;;;;;4997627;28;20644;-83
2021/06/22 05:42:11;;;;;;;16.75;4.90;;;14.60;99.90;;;;;;4996843;28;20231;-79
2021/06/22 05:44:36;;;;;;;5.35;4.15;;;14.60;99.90;;;;;;4998918;28;20622;-80
2021/06/22 05:47:02;;;;;;;13.60;4.45;;;14.60;99.90;;;;;;4998382;28;20169;-81
2021/06/22 05:49:28;;;;;;;10.95;4.47;;;14.60;99.90;;;;;;5013507;28;20247;-79
2021/06/22 05:51:54;;;;;;;9.73;4.45;;;14.50;99.90;;;;;;4999034;28;20679;-77
2021/06/22 05:54:19;;;;;;;7.72;5.13;;;14.50;99.90;;;;;;4998436;28;20315;-78
2021/06/22 05:56:45;;;;;;;11.52;4.93;;;14.50;99.90;;;;;;4994446;28;20166;-78
2021/06/22 05:59:10;;;;;;;15.48;5.38;;;14.50;99.90;;;;;;4992768;28;20243;-79
2021/06/22 06:01:36;;;;;;;13.45;4.55;;;14.30;99.90;;;;;;5000366;28;20584;-82
2021/06/22 06:04:02;;;;;;;11.68;5.78;;;14.50;99.90;;;;;;4995691;28;20203;-81
2021/06/22 06:06:27;;;;;;;22.60;5.05;;;14.40;99.90;;;;;;4998133;28;20216;-83
2021/06/22 06:08:54;;;;;;;5.90;5.28;;;14.40;99.90;;;;;;5005077;28;20230;-82
2021/06/22 06:11:20;;;;;;;13.07;5.35;;;14.40;99.90;;;;;;5019292;28;20223;-80
2021/06/22 06:13:46;;;;;;;10.35;4.80;;;14.60;99.90;;;;;;5004189;28;20264;-82
2021/06/22 06:16:11;;;;;;;9.35;5.60;;;14.50;99.90;;;;;;5018843;28;20177;-83
2021/06/22 06:18:37;;;;;;;7.95;4.68;;;14.40;99.90;;;;;;5005152;28;20184;-81
2021/06/22 06:21:03;;;;;;;16.40;5.50;;;14.30;99.90;;;;;;5005833;28;20689;-83
2021/06/22 06:23:34;;;;;;;9.57;4.90;;;14.20;99.90;;;;;;5006492;28;20228;-83
2021/06/22 06:26:00;;;;;;;9.30;5.65;;;14.20;99.90;;;;;;5008832;28;20173;-80
2021/06/22 06:28:29;;;;;;;10.35;5.60;;;14.00;99.90;;;;;;5022213;28;20240;-82
2021/06/22 06:30:55;;;;;;;8.05;4.82;;;14.10;99.90;;;;;;5006613;28;20180;-82
2021/06/22 06:33:21;;;;;;;7.40;4.88;;;14.20;99.90;;;;;;4996642;28;20204;-83
2021/06/22 06:35:47;;;;;;;7.95;5.05;;;14.10;99.90;;;;;;4998616;28;20176;-80
2021/06/22 06:38:15;;;;;;;5.57;4.55;;;13.90;99.90;;;;;;5002676;28;20192;-81
2021/06/22 06:40:41;;;;;;;11.80;6.32;;;14.00;99.90;;;;;;5033240;28;20153;-80
2021/06/22 06:43:06;;;;;;;11.02;5.38;;;14.10;99.90;;;;;;5015173;28;20200;-80
2021/06/22 06:45:32;;;;;;;11.60;5.07;;;14.20;99.90;;;;;;5014817;28;20600;-80
2021/06/22 06:47:58;;;;;;;13.18;5.40;;;14.20;99.90;;;;;;4998417;28;20625;-79
2021/06/22 06:50:24;;;;;;;9.48;5.40;;;14.30;99.90;;;;;;5001212;28;20254;-80
2021/06/22 06:52:49;;;;;;;15.02;5.50;;;14.30;99.90;;;;;;5005171;28;20204;-82
2021/06/22 06:55:26;;;;;;;9.98;4.30;;;14.30;99.90;;;;;;5015917;28;20164;-81
2021/06/22 06:58:03;;;;;;;6.75;4.70;;;14.30;99.90;;;;;;5013469;28;20224;-81
2021/06/22 07:00:31;;;;;;;13.88;4.28;;;14.30;99.90;;;;;;5015384;28;20199;-80
2021/06/22 07:02:59;;;;;;;6.18;4.35;;;14.20;99.90;;;;;;5016895;28;20731;-81
2021/06/22 07:05:26;;;;;;;12.00;4.95;;;14.30;99.90;;;;;;5013943;28;20179;-80
2021/06/22 07:07:51;;;;;;;10.00;5.00;;;14.40;99.90;;;;;;5012032;28;20251;-82
2021/06/22 07:10:17;;;;;;;10.98;6.28;;;14.30;99.90;;;;;;5015904;28;20246;-78
2021/06/22 07:12:44;;;;;;;8.18;5.07;;;14.50;99.90;;;;;;5014674;28;20207;-79
2021/06/22 07:15:10;;;;;;;11.50;5.22;;;14.60;99.90;;;;;;5010730;28;20196;-78
2021/06/22 07:17:36;;;;;;;51.17;8.60;;;14.50;99.90;;;;;;5011703;28;20528;-90
2021/06/22 07:20:04;;;;;;;8.20;4.93;;;14.50;99.90;;;;;;5014730;28;20251;-80
2021/06/22 07:22:30;;;;;;;11.43;5.28;;;14.40;99.90;;;;;;5016698;28;20227;-81
2021/06/22 07:24:55;;;;;;;8.77;5.03;;;14.50;99.90;;;;;;5018210;28;20172;-85
2021/06/22 07:27:21;;;;;;;13.43;5.82;;;14.40;99.90;;;;;;5017342;28;20567;-78
2021/06/22 07:29:49;;;;;;;11.77;6.40;;;14.40;99.90;;;;;;5018762;28;20171;-85
2021/06/22 07:32:15;;;;;;;7.32;5.50;;;14.50;99.90;;;;;;5018698;28;20207;-87
2021/06/22 07:34:41;;;;;;;10.23;5.78;;;14.50;99.90;;;;;;5018275;28;20173;-81
2021/06/22 07:37:06;;;;;;;13.27;7.68;;;14.70;99.90;;;;;;5020537;28;20599;-81
2021/06/22 07:39:32;;;;;;;10.55;6.47;;;14.70;99.90;;;;;;5022432;28;20597;-83
2021/06/22 07:41:57;;;;;;;8.55;6.45;;;14.80;99.90;;;;;;5020052;28;20197;-81
2021/06/22 07:44:23;;;;;;;10.00;5.80;;;14.90;99.90;;;;;;5020947;28;20262;-85
2021/06/22 07:46:50;;;;;;;14.15;7.10;;;14.90;99.90;;;;;;5029145;28;20160;-86
2021/06/22 07:49:17;;;;;;;17.00;7.05;;;15.00;99.90;;;;;;5032222;28;20215;-83
2021/06/22 07:51:44;;;;;;;12.20;6.43;;;15.00;99.90;;;;;;5014850;28;20208;-87
2021/06/22 07:54:10;;;;;;;13.50;7.07;;;15.10;99.90;;;;;;5004602;28;20658;-83
2021/06/22 07:56:38;;;;;;;8.88;7.47;;;15.00;99.90;;;;;;5024234;28;20168;-81
2021/06/22 07:59:04;;;;;;;14.40;7.00;;;15.00;99.90;;;;;;5023113;28;20172;-80
2021/06/22 08:01:30;;;;;;;10.55;6.78;;;14.90;99.90;;;;;;5022548;28;20180;-81
2021/06/22 08:03:56;;;;;;;15.55;6.68;;;14.80;99.90;;;;;;5022267;28;20176;-80
2021/06/22 08:06:22;;;;;;;14.88;7.72;;;14.90;99.90;;;;;;5033833;28;20161;-80
2021/06/22 08:08:47;;;;;;;8.23;6.82;;;14.80;99.90;;;;;;5016441;28;20172;-80
2021/06/22 08:11:13;;;;;;;15.13;6.90;;;14.50;99.90;;;;;;5013436;28;20180;-81
2021/06/22 08:13:39;;;;;;;11.18;6.85;;;14.50;99.90;;;;;;5014340;28;20579;-80
2021/06/22 08:16:05;;;;;;;11.77;6.70;;;14.50;99.90;;;;;;5015429;28;20506;-80
2021/06/22 08:18:33;;;;;;;15.68;6.63;;;14.60;99.90;;;;;;5015821;28;20161;-78
2021/06/22 08:20:59;;;;;;;11.02;6.55;;;14.50;99.90;;;;;;4998136;28;20214;-80
2021/06/22 08:23:28;;;;;;;10.93;7.72;;;14.50;99.90;;;;;;5014317;28;20615;-80
2021/06/22 08:25:53;;;;;;;9.00;6.65;;;14.50;99.90;;;;;;5014049;28;20227;-80
2021/06/22 08:28:20;;;;;;;14.10;6.60;;;14.70;99.90;;;;;;5015264;28;20176;-79
2021/06/22 08:30:46;;;;;;;11.20;7.22;;;14.70;99.90;;;;;;5014105;28;20164;-80
2021/06/22 08:33:12;;;;;;;8.85;6.70;;;14.70;99.90;;;;;;5015058;28;20205;-81
2021/06/22 08:35:39;;;;;;;12.52;6.38;;;14.70;99.90;;;;;;5015219;28;20685;-80
2021/06/22 08:38:08;;;;;;;20.38;6.47;;;14.70;99.90;;;;;;5014107;28;20176;-80
2021/06/22 08:40:35;;;;;;;9.48;6.30;;;14.70;99.90;;;;;;5013104;28;20165;-79
2021/06/22 08:43:02;;;;;;;10.45;7.03;;;14.90;99.90;;;;;;5018170;28;20188;-79
2021/06/22 08:45:27;;;;;;;5.50;5.00;;;15.10;99.90;;;;;;5015318;28;20188;-79
2021/06/22 08:47:53;;;;;;;9.52;6.05;;;15.10;99.90;;;;;;5015887;28;20179;-80
2021/06/22 08:50:19;;;;;;;11.73;5.82;;;15.10;99.90;;;;;;5015241;28;20169;-79
2021/06/22 08:52:46;;;;;;;13.30;5.95;;;15.20;99.90;;;;;;5015165;28;20196;-79
2021/06/22 08:55:29;;;;;;;6.25;5.75;;;15.20;99.90;;;;;;5015290;28;20735;-79
2021/06/22 08:58:03;;;;;;;15.77;6.35;;;15.30;99.90;;;;;;5013878;28;20188;-79
2021/06/22 09:00:31;;;;;;;12.38;5.60;;;15.50;99.90;;;;;;5015205;28;20168;-79
2021/06/22 09:03:11;;;;;;;9.65;5.85;;;15.30;99.90;;;;;;5014635;28;20188;-79
2021/06/22 09:05:42;;;;;;;8.93;5.68;;;15.00;99.90;;;;;;5014577;28;20574;-79
2021/06/22 09:08:22;;;;;;;15.43;6.22;;;14.90;99.90;;;;;;5013518;28;20196;-79
2021/06/22 09:10:51;;;;;;;11.85;5.93;;;14.80;99.90;;;;;;5013428;28;20164;-79
2021/06/22 09:13:18;;;;;;;9.07;6.45;;;14.80;99.90;;;;;;5014526;28;20200;-80
2021/06/22 09:15:48;;;;;;;7.03;5.50;;;14.90;99.90;;;;;;5014927;28;20641;-79
2021/06/22 09:18:24;;;;;;;7.13;5.57;;;15.10;99.90;;;;;;5014640;28;20648;-79
2021/06/22 09:20:50;;;;;;;15.25;6.30;;;14.90;99.90;;;;;;5015233;28;20183;-80
2021/06/22 09:23:15;;;;;;;8.50;5.20;;;14.90;99.90;;;;;;5014235;28;20204;-80
2021/06/22 09:25:42;;;;;;;12.90;5.70;;;14.90;99.90;;;;;;5023269;28;20168;-79
2021/06/22 09:28:08;;;;;;;15.07;5.75;;;14.90;99.90;;;;;;5037444;28;20161;-81
2021/06/22 09:30:37;;;;;;;13.55;6.40;;;14.90;99.90;;;;;;5037378;28;20160;-79
2021/06/22 09:33:19;;;;;;;13.60;5.78;;;14.90;99.90;;;;;;5028693;28;20699;-79
2021/06/22 09:35:46;;;;;;;9.65;6.10;;;14.80;99.90;;;;;;5015757;28;20258;-79
2021/06/22 09:38:13;;;;;;;9.60;5.38;;;15.00;99.90;;;;;;5014079;28;20200;-79
2021/06/22 09:40:39;;;;;;;13.40;5.80;;;14.90;99.90;;;;;;5015128;28;20164;-79
2021/06/22 09:43:05;;;;;;;17.15;5.82;;;14.90;99.90;;;;;;5016337;28;20193;-79
2021/06/22 09:45:31;;;;;;;16.42;5.80;;;14.90;99.90;;;;;;5015195;28;20305;-80
2021/06/22 09:48:01;;;;;;;6.38;5.00;;;14.90;99.90;;;;;;5015312;28;20164;-78
2021/06/22 09:50:44;;;;;;;11.73;5.28;;;15.00;99.90;;;;;;5014497;28;20210;-80
2021/06/22 09:53:28;;;;;;;14.15;5.22;;;15.10;99.90;;;;;;5014810;28;20259;-80
2021/06/22 09:55:54;;;;;;;5.85;4.43;;;15.40;99.90;;;;;;5015018;28;20164;-80
2021/06/22 09:58:43;;;;;;;13.55;5.18;;;15.60;99.90;;;;;;5013373;28;20168;-79
2021/06/22 10:01:28;;;;;;;7.82;5.22;;;15.90;99.90;;;;;;5014576;28;20173;-79
2021/06/22 10:03:55;;;;;;;8.15;4.57;;;16.10;99.90;;;;;;5013125;28;20633;-80
2021/06/22 10:06:21;;;;;;;8.00;4.82;;;16.20;99.90;;;;;;5013945;28;20164;-78
2021/06/22 10:08:51;;;;;;;6.50;5.03;;;16.10;99.90;;;;;;5014632;28;20637;-79
2021/06/22 10:11:39;;;;;;;7.70;4.75;;;16.10;99.90;;;;;;5014208;28;20169;-86
2021/06/22 10:14:09;;;;;;;6.70;5.05;;;16.00;99.90;;;;;;5014050;28;20219;-81
2021/06/22 10:16:36;;;;;;;10.55;5.18;;;16.10;99.90;;;;;;5014267;28;20176;-79
2021/06/22 10:19:05;;;;;;;11.23;6.10;;;16.20;99.90;;;;;;5014038;28;20168;-79
2021/06/22 10:21:32;;;;;;;7.13;5.80;;;16.30;99.90;;;;;;5013961;28;20524;-78
2021/06/22 10:23:58;;;;;;;6.30;5.55;;;16.00;99.90;;;;;;5013194;28;20172;-79
2021/06/22 10:26:27;;;;;;;10.82;6.10;;;15.90;99.90;;;;;;5013373;28;20180;-80
2021/06/22 10:28:53;;;;;;;11.27;6.57;;;16.00;99.90;;;;;;5012711;28;20181;-80
2021/06/22 10:31:20;;;;;;;10.77;7.47;;;15.90;99.90;;;;;;5012231;28;20173;-79
2021/06/22 10:33:45;;;;;;;12.68;6.95;;;16.20;99.90;;;;;;5013743;28;20664;-79
2021/06/22 10:36:21;;;;;;;9.73;7.32;;;16.20;99.90;;;;;;5013972;28;20188;-80
2021/06/22 10:38:49;;;;;;;7.55;6.80;;;16.10;99.90;;;;;;5013272;28;20160;-80
2021/06/22 10:41:15;;;;;;;12.90;8.18;;;16.20;99.90;;;;;;5012253;28;20542;-80
2021/06/22 10:43:40;;;;;;;8.38;7.35;;;16.00;99.90;;;;;;5012436;28;20168;-80
2021/06/22 10:46:17;;;;;;;13.52;7.55;;;15.90;99.90;;;;;;5013732;28;20176;-80
2021/06/22 10:48:52;;;;;;;11.30;8.73;;;15.90;99.90;;;;;;5013430;28;20187;-80
2021/06/22 10:51:31;;;;;;;12.88;9.13;;;15.90;99.90;;;;;;5012060;28;20179;-80
2021/06/22 10:53:58;;;;;;;12.15;9.43;;;16.10;99.90;;;;;;5013816;28;20200;-80
2021/06/22 10:56:25;;;;;;;11.68;9.93;;;16.40;99.90;;;;;;5013565;28;20518;-80
2021/06/22 10:59:14;;;;;;;19.70;9.15;;;16.70;99.90;;;;;;5012212;28;20168;-79
2021/06/22 11:02:07;;;;;;;13.65;8.52;;;16.70;99.90;;;;;;5013829;28;20238;-81
2021/06/22 11:04:34;;;;;;;14.25;9.95;;;16.80;99.90;;;;;;5014630;28;20640;-81
2021/06/22 11:07:05;;;;;;;20.80;10.45;;;16.70;99.90;;;;;;5016425;28;20543;-81
2021/06/22 11:09:32;;;;;;;22.10;11.30;;;16.50;99.90;;;;;;5016189;28;20174;-81
2021/06/22 11:12:20;;;;;;;30.48;11.35;;;16.30;99.90;;;;;;5016408;28;20285;-81
2021/06/22 11:15:06;;;;;;;16.23;10.75;;;16.30;99.90;;;;;;5016489;28;20232;-81
2021/06/22 11:17:56;;;;;;;104.88;19.15;;;16.30;99.90;;;;;;5016577;28;20187;-80
2021/06/22 11:20:22;;;;;;;20.02;11.00;;;16.60;99.90;;;;;;5014962;28;20184;-79
2021/06/22 11:23:04;;;;;;;15.55;11.20;;;16.50;99.90;;;;;;5017648;28;20204;-82
2021/06/22 11:26:05;;;;;;;23.65;13.43;;;16.60;99.90;;;;;;5015216;28;20169;-81
2021/06/22 11:28:57;;;;;;;16.38;13.05;;;16.40;99.90;;;;;;4999309;28;20191;-82
2021/06/22 11:31:45;;;;;;;14.90;11.88;;;16.10;99.90;;;;;;5008463;28;20238;-83
2021/06/22 11:34:13;;;;;;;13.93;12.32;;;16.20;99.90;;;;;;5027879;28;20210;-81
2021/06/22 11:36:44;;;;;;;18.15;12.05;;;16.40;99.90;;;;;;5034764;28;20176;-81
2021/06/22 11:39:36;;;;;;;44.58;16.20;;;16.50;99.90;;;;;;5012114;28;20181;-82
2021/06/22 11:42:11;;;;;;;21.77;13.23;;;16.50;99.90;;;;;;5013187;28;20203;-83
2021/06/22 11:45:03;;;;;;;13.07;11.77;;;16.30;99.90;;;;;;5014857;28;20176;-81
2021/06/22 11:47:31;;;;;;;23.38;13.73;;;16.40;99.90;;;;;;5014720;28;20643;-81
2021/06/22 11:50:09;;;;;;;16.25;13.32;;;16.60;99.90;;;;;;5013650;28;20199;-81
2021/06/22 11:52:40;;;;;;;19.67;13.48;;;16.60;99.90;;;;;;5014563;28;20656;-82
2021/06/22 11:55:16;;;;;;;20.65;14.07;;;16.60;99.90;;;;;;5016100;28;20652;-79
2021/06/22 11:57:46;;;;;;;16.60;12.00;;;16.60;99.90;;;;;;5017212;28;20164;-79
2021/06/22 12:00:16;;;;;;;13.55;12.18;;;16.80;99.90;;;;;;5020374;28;20185;-79
2021/06/22 12:02:49;;;;;;;14.60;12.07;;;16.80;99.90;;;;;;5019058;28;20712;-87
2021/06/22 12:05:17;;;;;;;16.80;11.48;;;16.70;99.90;;;;;;5020938;28;20172;-78
2021/06/22 12:07:47;;;;;;;17.10;12.85;;;16.60;99.90;;;;;;5018710;28;20180;-79
2021/06/22 12:10:14;;;;;;;26.23;14.10;;;16.60;99.90;;;;;;5017726;28;20176;-79
2021/06/22 12:12:44;;;;;;;29.70;12.63;;;16.60;99.90;;;;;;5021940;28;20616;-81
2021/06/22 12:15:11;;;;;;;15.95;12.73;;;16.70;99.90;;;;;;5037787;28;20153;-80
2021/06/22 12:17:37;;;;;;;17.40;12.85;;;16.80;99.90;;;;;;5037737;28;20244;-79
2021/06/22 12:20:19;;;;;;;18.65;12.82;;;17.10;99.90;;;;;;5029932;28;20180;-80
2021/06/22 12:23:02;;;;;;;18.70;12.73;;;17.30;99.90;;;;;;5016988;28;20556;-80
2021/06/22 12:25:33;;;;;;;13.98;12.57;;;17.20;99.90;;;;;;5016356;28;20271;-80
2021/06/22 12:27:59;;;;;;;20.77;12.75;;;17.00;99.90;;;;;;5016716;28;20169;-80
2021/06/22 12:30:46;;;;;;;22.38;13.02;;;17.30;99.90;;;;;;5016001;28;20191;-80
2021/06/22 12:33:14;;;;;;;20.77;14.57;;;17.30;99.90;;;;;;5017311;28;20238;-80
2021/06/22 12:35:41;;;;;;;18.67;13.30;;;17.30;99.90;;;;;;5016785;28;20216;-80
2021/06/22 12:38:09;;;;;;;20.45;14.10;;;17.20;99.90;;;;;;5017594;28;20621;-81
2021/06/22 12:40:43;;;;;;;21.02;14.13;;;17.00;99.90;;;;;;5017266;28;20172;-81
2021/06/22 12:43:09;;;;;;;24.35;13.95;;;17.20;99.90;;;;;;5015504;28;20530;-81
2021/06/22 12:45:35;;;;;;;16.40;12.55;;;17.20;99.90;;;;;;5015147;28;20315;-81
2021/06/22 12:48:01;;;;;;;35.78;14.65;;;17.10;99.90;;;;;;5016186;28;20243;-80